sensor_id;sensor_type;location;lat;lon;timestamp;P1;durP1;ratioP1;P2;durP2;ratioP2
43435;SDS011;36399;51.444;-2.018;2023-04-15T00:01:27;1.90;;;1.80;;
43435;SDS011;36399;51.444;-2.018;2023-04-15T00:03:53;0.00;;;0.00;;
43435;SDS011;36399;51.444;-2.018;2023-04-15T00:06:20;0.00;;;0.00;;
43435;SDS011;36399;51.444;-2.018;2023-04-15T00:08:47;1.37;;;1.13;;
43435;SDS011;36399;51.444;-2.018;2023-04-15T00:11:13;0.20;;;0.20;;
43435;SDS011;36399;51.444;-2.018;2023-04-15T00:13:40;0.73;;;0.73;;
43435;SDS011;36399;51.444;-2.018;2023-04-15T00:16:06;27.47;;;1.40;;
43435;SDS011;36399;51.444;-2.018;2023-04-15T00:18:33;0.43;;;0.30;;
43435;SDS011;36399;51.444;-2.018;2023-04-15T00:21:00;0.00;;;0.00;;
43435;SDS011;36399;51.444;-2.018;2023-04-15T00:23:26;0.83;;;0.83;;
43435;SDS011;36399;51.444;-2.018;2023-04-15T00:25:52;0.10;;;0.10;;
43435;SDS011;36399;51.444;-2.018;2023-04-15T00:28:19;0.00;;;0.00;;
43435;SDS011;36399;51.444;-2.018;2023-04-15T00:30:45;0.43;;;0.43;;
43435;SDS011;36399;51.444;-2.018;2023-04-15T00:33:12;0.10;;;0.10;;
43435;SDS011;36399;51.444;-2.018;2023-04-15T00:35:38;0.30;;;0.30;;
43435;SDS011;36399;51.444;-2.018;2023-04-15T00:38:05;1.27;;;0.37;;
43435;SDS011;36399;51.444;-2.018;2023-04-15T00:40:34;0.30;;;0.30;;
43435;SDS011;36399;51.444;-2.018;2023-04-15T00:43:00;0.10;;;0.10;;
43435;SDS011;36399;51.444;-2.018;2023-04-15T00:45:26;1.80;;;0.97;;
43435;SDS011;36399;51.444;-2.018;2023-04-15T00:47:53;0.20;;;0.20;;
43435;SDS011;36399;51.444;-2.018;2023-04-15T00:50:19;0.17;;;0.17;;
43435;SDS011;36399;51.444;-2.018;2023-04-15T00:52:45;0.40;;;0.40;;
43435;SDS011;36399;51.444;-2.018;2023-04-15T00:55:11;0.20;;;0.20;;
43435;SDS011;36399;51.444;-2.018;2023-04-15T00:57:38;0.00;;;0.00;;
43435;SDS011;36399;51.444;-2.018;2023-04-15T01:00:04;0.00;;;0.00;;
43435;SDS011;36399;51.444;-2.018;2023-04-15T01:02:33;0.03;;;0.03;;
43435;SDS011;36399;51.444;-2.018;2023-04-15T01:05:00;0.10;;;0.10;;
43435;SDS011;36399;51.444;-2.018;2023-04-15T01:07:25;0.40;;;0.40;;
43435;SDS011;36399;51.444;-2.018;2023-04-15T01:09:52;0.00;;;0.00;;
43435;SDS011;36399;51.444;-2.018;2023-04-15T01:12:18;0.00;;;0.00;;
43435;SDS011;36399;51.444;-2.018;2023-04-15T01:14:45;0.10;;;0.10;;
43435;SDS011;36399;51.444;-2.018;2023-04-15T01:17:11;0.13;;;0.13;;
43435;SDS011;36399;51.444;-2.018;2023-04-15T01:19:38;0.60;;;0.60;;
43435;SDS011;36399;51.444;-2.018;2023-04-15T01:22:04;0.70;;;0.70;;
43435;SDS011;36399;51.444;-2.018;2023-04-15T01:24:33;1.80;;;0.83;;
43435;SDS011;36399;51.444;-2.018;2023-04-15T01:27:01;0.73;;;0.73;;
43435;SDS011;36399;51.444;-2.018;2023-04-15T01:29:28;0.23;;;0.23;;
43435;SDS011;36399;51.444;-2.018;2023-04-15T01:31:54;0.00;;;0.00;;
43435;SDS011;36399;51.444;-2.018;2023-04-15T01:34:21;1.57;;;1.57;;
43435;SDS011;36399;51.444;-2.018;2023-04-15T01:36:47;0.00;;;0.00;;
43435;SDS011;36399;51.444;-2.018;2023-04-15T01:39:13;0.20;;;0.20;;
43435;SDS011;36399;51.444;-2.018;2023-04-15T01:41:39;0.20;;;0.20;;
43435;SDS011;36399;51.444;-2.018;2023-04-15T01:44:07;0.10;;;0.10;;
43435;SDS011;36399;51.444;-2.018;2023-04-15T01:46:33;0.50;;;0.50;;
43435;SDS011;36399;51.444;-2.018;2023-04-15T01:48:59;0.20;;;0.20;;
43435;SDS011;36399;51.444;-2.018;2023-04-15T01:51:25;0.30;;;0.30;;
43435;SDS011;36399;51.444;-2.018;2023-04-15T01:53:52;2.00;;;1.70;;
43435;SDS011;36399;51.444;-2.018;2023-04-15T01:56:18;0.30;;;0.30;;
43435;SDS011;36399;51.444;-2.018;2023-04-15T01:58:44;3.87;;;1.90;;
43435;SDS011;36399;51.444;-2.018;2023-04-15T02:01:10;0.30;;;0.30;;
43435;SDS011;36399;51.444;-2.018;2023-04-15T02:03:36;0.23;;;0.23;;
43435;SDS011;36399;51.444;-2.018;2023-04-15T02:06:03;0.20;;;0.20;;
43435;SDS011;36399;51.444;-2.018;2023-04-15T02:08:30;3.10;;;1.80;;
43435;SDS011;36399;51.444;-2.018;2023-04-15T02:10:56;0.53;;;0.47;;
43435;SDS011;36399;51.444;-2.018;2023-04-15T02:13:22;0.20;;;0.20;;
43435;SDS011;36399;51.444;-2.018;2023-04-15T02:15:48;0.43;;;0.43;;
43435;SDS011;36399;51.444;-2.018;2023-04-15T02:18:15;0.60;;;0.60;;
43435;SDS011;36399;51.444;-2.018;2023-04-15T02:20:41;1.73;;;1.63;;
43435;SDS011;36399;51.444;-2.018;2023-04-15T02:23:11;0.97;;;0.97;;
43435;SDS011;36399;51.444;-2.018;2023-04-15T02:25:37;0.10;;;0.10;;
43435;SDS011;36399;51.444;-2.018;2023-04-15T02:28:04;0.50;;;0.50;;
43435;SDS011;36399;51.444;-2.018;2023-04-15T02:30:31;1.10;;;0.50;;
43435;SDS011;36399;51.444;-2.018;2023-04-15T02:32:58;0.50;;;0.50;;
43435;SDS011;36399;51.444;-2.018;2023-04-15T02:35:24;0.47;;;0.47;;
43435;SDS011;36399;51.444;-2.018;2023-04-15T02:37:51;0.10;;;0.10;;
43435;SDS011;36399;51.444;-2.018;2023-04-15T02:40:17;0.27;;;0.27;;
43435;SDS011;36399;51.444;-2.018;2023-04-15T02:42:43;0.30;;;0.30;;
43435;SDS011;36399;51.444;-2.018;2023-04-15T02:45:09;0.43;;;0.43;;
43435;SDS011;36399;51.444;-2.018;2023-04-15T02:47:37;1.50;;;1.40;;
43435;SDS011;36399;51.444;-2.018;2023-04-15T02:50:07;0.90;;;0.90;;
43435;SDS011;36399;51.444;-2.018;2023-04-15T02:52:35;0.33;;;0.33;;
43435;SDS011;36399;51.444;-2.018;2023-04-15T02:55:01;0.87;;;0.87;;
43435;SDS011;36399;51.444;-2.018;2023-04-15T02:57:28;0.30;;;0.30;;
43435;SDS011;36399;51.444;-2.018;2023-04-15T02:59:55;0.87;;;0.87;;
43435;SDS011;36399;51.444;-2.018;2023-04-15T03:02:21;0.10;;;0.10;;
43435;SDS011;36399;51.444;-2.018;2023-04-15T03:04:47;1.70;;;1.60;;
43435;SDS011;36399;51.444;-2.018;2023-04-15T03:07:13;0.20;;;0.20;;
43435;SDS011;36399;51.444;-2.018;2023-04-15T03:09:39;1.10;;;1.03;;
43435;SDS011;36399;51.444;-2.018;2023-04-15T03:12:06;0.10;;;0.10;;
43435;SDS011;36399;51.444;-2.018;2023-04-15T03:14:32;0.60;;;0.60;;
43435;SDS011;36399;51.444;-2.018;2023-04-15T03:16:58;2.37;;;1.03;;
43435;SDS011;36399;51.444;-2.018;2023-04-15T03:19:24;0.23;;;0.23;;
43435;SDS011;36399;51.444;-2.018;2023-04-15T03:21:50;0.20;;;0.20;;
43435;SDS011;36399;51.444;-2.018;2023-04-15T03:24:16;0.47;;;0.47;;
43435;SDS011;36399;51.444;-2.018;2023-04-15T03:26:42;0.33;;;0.33;;
43435;SDS011;36399;51.444;-2.018;2023-04-15T03:29:08;0.47;;;0.47;;
43435;SDS011;36399;51.444;-2.018;2023-04-15T03:31:34;0.77;;;0.77;;
43435;SDS011;36399;51.444;-2.018;2023-04-15T03:34:01;0.60;;;0.60;;
43435;SDS011;36399;51.444;-2.018;2023-04-15T03:36:27;0.30;;;0.30;;
43435;SDS011;36399;51.444;-2.018;2023-04-15T03:38:56;0.00;;;0.00;;
43435;SDS011;36399;51.444;-2.018;2023-04-15T03:41:22;1.73;;;1.53;;
43435;SDS011;36399;51.444;-2.018;2023-04-15T03:43:48;1.37;;;0.90;;
43435;SDS011;36399;51.444;-2.018;2023-04-15T03:46:17;2.13;;;2.03;;
43435;SDS011;36399;51.444;-2.018;2023-04-15T03:48:43;0.17;;;0.17;;
43435;SDS011;36399;51.444;-2.018;2023-04-15T03:51:09;0.93;;;0.77;;
43435;SDS011;36399;51.444;-2.018;2023-04-15T03:53:35;0.87;;;0.87;;
43435;SDS011;36399;51.444;-2.018;2023-04-15T03:56:01;2.00;;;1.90;;
43435;SDS011;36399;51.444;-2.018;2023-04-15T03:58:27;0.83;;;0.83;;
43435;SDS011;36399;51.444;-2.018;2023-04-15T04:00:53;0.10;;;0.10;;
43435;SDS011;36399;51.444;-2.018;2023-04-15T04:03:19;0.57;;;0.57;;
43435;SDS011;36399;51.444;-2.018;2023-04-15T04:05:45;1.30;;;1.30;;
43435;SDS011;36399;51.444;-2.018;2023-04-15T04:08:11;0.40;;;0.40;;
43435;SDS011;36399;51.444;-2.018;2023-04-15T04:10:41;0.73;;;0.73;;
43435;SDS011;36399;51.444;-2.018;2023-04-15T04:13:07;1.83;;;1.23;;
43435;SDS011;36399;51.444;-2.018;2023-04-15T04:15:33;0.47;;;0.47;;
43435;SDS011;36399;51.444;-2.018;2023-04-15T04:17:59;0.10;;;0.10;;
43435;SDS011;36399;51.444;-2.018;2023-04-15T04:20:25;0.10;;;0.10;;
43435;SDS011;36399;51.444;-2.018;2023-04-15T04:22:51;5.40;;;0.73;;
43435;SDS011;36399;51.444;-2.018;2023-04-15T04:25:17;0.03;;;0.03;;
43435;SDS011;36399;51.444;-2.018;2023-04-15T04:27:43;0.10;;;0.10;;
43435;SDS011;36399;51.444;-2.018;2023-04-15T04:30:10;0.30;;;0.30;;
43435;SDS011;36399;51.444;-2.018;2023-04-15T04:32:36;3.10;;;2.73;;
43435;SDS011;36399;51.444;-2.018;2023-04-15T04:35:03;0.30;;;0.30;;
43435;SDS011;36399;51.444;-2.018;2023-04-15T04:37:29;0.63;;;0.63;;
43435;SDS011;36399;51.444;-2.018;2023-04-15T04:39:55;1.47;;;0.97;;
43435;SDS011;36399;51.444;-2.018;2023-04-15T04:42:21;0.17;;;0.17;;
43435;SDS011;36399;51.444;-2.018;2023-04-15T04:44:47;0.30;;;0.30;;
43435;SDS011;36399;51.444;-2.018;2023-04-15T04:47:13;0.70;;;0.70;;
43435;SDS011;36399;51.444;-2.018;2023-04-15T04:49:39;1.07;;;1.07;;
43435;SDS011;36399;51.444;-2.018;2023-04-15T04:52:05;1.33;;;1.13;;
43435;SDS011;36399;51.444;-2.018;2023-04-15T04:54:31;1.20;;;1.03;;
43435;SDS011;36399;51.444;-2.018;2023-04-15T04:56:58;0.20;;;0.20;;
43435;SDS011;36399;51.444;-2.018;2023-04-15T04:59:24;0.00;;;0.00;;
43435;SDS011;36399;51.444;-2.018;2023-04-15T05:01:50;0.30;;;0.30;;
43435;SDS011;36399;51.444;-2.018;2023-04-15T05:04:16;0.40;;;0.40;;
43435;SDS011;36399;51.444;-2.018;2023-04-15T05:06:42;0.00;;;0.00;;
43435;SDS011;36399;51.444;-2.018;2023-04-15T05:09:08;0.37;;;0.37;;
43435;SDS011;36399;51.444;-2.018;2023-04-15T05:11:34;0.10;;;0.10;;
43435;SDS011;36399;51.444;-2.018;2023-04-15T05:14:00;0.10;;;0.10;;
43435;SDS011;36399;51.444;-2.018;2023-04-15T05:16:27;1.17;;;0.73;;
43435;SDS011;36399;51.444;-2.018;2023-04-15T05:18:53;0.37;;;0.37;;
43435;SDS011;36399;51.444;-2.018;2023-04-15T05:21:19;0.40;;;0.40;;
43435;SDS011;36399;51.444;-2.018;2023-04-15T05:23:45;0.10;;;0.10;;
43435;SDS011;36399;51.444;-2.018;2023-04-15T05:26:11;0.40;;;0.40;;
43435;SDS011;36399;51.444;-2.018;2023-04-15T05:28:37;0.30;;;0.30;;
43435;SDS011;36399;51.444;-2.018;2023-04-15T05:31:05;0.10;;;0.10;;
43435;SDS011;36399;51.444;-2.018;2023-04-15T05:33:31;0.57;;;0.57;;
43435;SDS011;36399;51.444;-2.018;2023-04-15T05:35:57;0.27;;;0.27;;
43435;SDS011;36399;51.444;-2.018;2023-04-15T05:38:23;0.10;;;0.10;;
43435;SDS011;36399;51.444;-2.018;2023-04-15T05:40:49;0.10;;;0.10;;
43435;SDS011;36399;51.444;-2.018;2023-04-15T05:43:16;1.33;;;0.87;;
43435;SDS011;36399;51.444;-2.018;2023-04-15T05:45:42;0.50;;;0.50;;
43435;SDS011;36399;51.444;-2.018;2023-04-15T05:48:08;0.47;;;0.47;;
43435;SDS011;36399;51.444;-2.018;2023-04-15T05:50:34;0.03;;;0.03;;
43435;SDS011;36399;51.444;-2.018;2023-04-15T05:53:00;0.57;;;0.57;;
43435;SDS011;36399;51.444;-2.018;2023-04-15T05:55:27;0.10;;;0.10;;
43435;SDS011;36399;51.444;-2.018;2023-04-15T05:57:54;0.00;;;0.00;;
43435;SDS011;36399;51.444;-2.018;2023-04-15T06:00:20;0.30;;;0.30;;
43435;SDS011;36399;51.444;-2.018;2023-04-15T06:02:46;0.20;;;0.20;;
43435;SDS011;36399;51.444;-2.018;2023-04-15T06:05:13;0.30;;;0.30;;
43435;SDS011;36399;51.444;-2.018;2023-04-15T06:07:39;0.30;;;0.30;;
43435;SDS011;36399;51.444;-2.018;2023-04-15T06:10:05;0.93;;;0.93;;
43435;SDS011;36399;51.444;-2.018;2023-04-15T06:12:31;0.10;;;0.10;;
43435;SDS011;36399;51.444;-2.018;2023-04-15T06:14:57;0.10;;;0.10;;
43435;SDS011;36399;51.444;-2.018;2023-04-15T06:17:23;0.13;;;0.13;;
43435;SDS011;36399;51.444;-2.018;2023-04-15T06:19:50;0.10;;;0.10;;
43435;SDS011;36399;51.444;-2.018;2023-04-15T06:22:20;0.00;;;0.00;;
43435;SDS011;36399;51.444;-2.018;2023-04-15T06:24:47;0.30;;;0.30;;
43435;SDS011;36399;51.444;-2.018;2023-04-15T06:27:15;0.30;;;0.30;;
43435;SDS011;36399;51.444;-2.018;2023-04-15T06:29:41;0.10;;;0.10;;
43435;SDS011;36399;51.444;-2.018;2023-04-15T06:32:10;0.00;;;0.00;;
43435;SDS011;36399;51.444;-2.018;2023-04-15T06:34:36;0.83;;;0.83;;
43435;SDS011;36399;51.444;-2.018;2023-04-15T06:37:05;0.73;;;0.73;;
43435;SDS011;36399;51.444;-2.018;2023-04-15T06:39:31;0.47;;;0.47;;
43435;SDS011;36399;51.444;-2.018;2023-04-15T06:41:57;0.00;;;0.00;;
43435;SDS011;36399;51.444;-2.018;2023-04-15T06:44:23;0.50;;;0.50;;
43435;SDS011;36399;51.444;-2.018;2023-04-15T06:46:49;0.37;;;0.37;;
43435;SDS011;36399;51.444;-2.018;2023-04-15T06:49:15;0.20;;;0.20;;
43435;SDS011;36399;51.444;-2.018;2023-04-15T06:51:42;0.30;;;0.30;;
43435;SDS011;36399;51.444;-2.018;2023-04-15T06:54:08;0.00;;;0.00;;
43435;SDS011;36399;51.444;-2.018;2023-04-15T06:56:34;0.40;;;0.40;;
43435;SDS011;36399;51.444;-2.018;2023-04-15T06:59:00;0.40;;;0.40;;
43435;SDS011;36399;51.444;-2.018;2023-04-15T07:01:26;0.20;;;0.20;;
43435;SDS011;36399;51.444;-2.018;2023-04-15T07:03:52;0.87;;;0.87;;
43435;SDS011;36399;51.444;-2.018;2023-04-15T07:06:18;0.73;;;0.73;;
43435;SDS011;36399;51.444;-2.018;2023-04-15T07:08:44;0.73;;;0.73;;
43435;SDS011;36399;51.444;-2.018;2023-04-15T07:11:10;0.10;;;0.10;;
43435;SDS011;36399;51.444;-2.018;2023-04-15T07:13:36;1.23;;;0.47;;
43435;SDS011;36399;51.444;-2.018;2023-04-15T07:16:02;0.47;;;0.47;;
43435;SDS011;36399;51.444;-2.018;2023-04-15T07:18:28;0.17;;;0.17;;
43435;SDS011;36399;51.444;-2.018;2023-04-15T07:20:54;1.03;;;1.03;;
43435;SDS011;36399;51.444;-2.018;2023-04-15T07:23:20;0.57;;;0.57;;
43435;SDS011;36399;51.444;-2.018;2023-04-15T07:25:46;0.00;;;0.00;;
43435;SDS011;36399;51.444;-2.018;2023-04-15T07:28:13;0.13;;;0.13;;
43435;SDS011;36399;51.444;-2.018;2023-04-15T07:30:39;1.70;;;0.73;;
43435;SDS011;36399;51.444;-2.018;2023-04-15T07:33:05;0.20;;;0.20;;
43435;SDS011;36399;51.444;-2.018;2023-04-15T07:35:32;0.63;;;0.63;;
43435;SDS011;36399;51.444;-2.018;2023-04-15T07:37:58;2.20;;;2.10;;
43435;SDS011;36399;51.444;-2.018;2023-04-15T07:40:24;1.33;;;1.27;;
43435;SDS011;36399;51.444;-2.018;2023-04-15T07:42:50;0.83;;;0.83;;
43435;SDS011;36399;51.444;-2.018;2023-04-15T07:45:16;2.80;;;1.17;;
43435;SDS011;36399;51.444;-2.018;2023-04-15T07:47:42;0.40;;;0.40;;
43435;SDS011;36399;51.444;-2.018;2023-04-15T07:50:08;0.30;;;0.30;;
43435;SDS011;36399;51.444;-2.018;2023-04-15T07:52:37;0.23;;;0.23;;
43435;SDS011;36399;51.444;-2.018;2023-04-15T07:55:08;0.20;;;0.20;;
43435;SDS011;36399;51.444;-2.018;2023-04-15T07:57:35;0.20;;;0.20;;
43435;SDS011;36399;51.444;-2.018;2023-04-15T08:00:01;0.10;;;0.10;;
43435;SDS011;36399;51.444;-2.018;2023-04-15T08:02:32;18.27;;;1.37;;
43435;SDS011;36399;51.444;-2.018;2023-04-15T08:04:58;0.30;;;0.30;;
43435;SDS011;36399;51.444;-2.018;2023-04-15T08:07:24;0.40;;;0.40;;
43435;SDS011;36399;51.444;-2.018;2023-04-15T08:09:50;1.87;;;1.63;;
43435;SDS011;36399;51.444;-2.018;2023-04-15T08:12:16;0.30;;;0.30;;
43435;SDS011;36399;51.444;-2.018;2023-04-15T08:14:42;1.53;;;0.97;;
43435;SDS011;36399;51.444;-2.018;2023-04-15T08:17:08;0.60;;;0.60;;
43435;SDS011;36399;51.444;-2.018;2023-04-15T08:19:34;1.30;;;1.20;;
43435;SDS011;36399;51.444;-2.018;2023-04-15T08:22:00;1.37;;;1.27;;
43435;SDS011;36399;51.444;-2.018;2023-04-15T08:24:27;9.50;;;4.33;;
43435;SDS011;36399;51.444;-2.018;2023-04-15T08:26:53;9.50;;;5.27;;
43435;SDS011;36399;51.444;-2.018;2023-04-15T08:29:19;8.57;;;4.63;;
43435;SDS011;36399;51.444;-2.018;2023-04-15T08:31:45;7.67;;;4.17;;
43435;SDS011;36399;51.444;-2.018;2023-04-15T08:34:12;9.07;;;4.37;;
43435;SDS011;36399;51.444;-2.018;2023-04-15T08:36:38;7.40;;;3.67;;
43435;SDS011;36399;51.444;-2.018;2023-04-15T08:39:04;6.27;;;3.80;;
43435;SDS011;36399;51.444;-2.018;2023-04-15T08:41:33;7.40;;;4.07;;
43435;SDS011;36399;51.444;-2.018;2023-04-15T08:44:16;8.17;;;4.50;;
43435;SDS011;36399;51.444;-2.018;2023-04-15T08:46:43;5.90;;;2.97;;
43435;SDS011;36399;51.444;-2.018;2023-04-15T08:49:09;11.53;;;3.73;;
43435;SDS011;36399;51.444;-2.018;2023-04-15T08:51:39;5.80;;;3.10;;
43435;SDS011;36399;51.444;-2.018;2023-04-15T08:54:05;5.93;;;3.00;;
43435;SDS011;36399;51.444;-2.018;2023-04-15T08:56:33;10.53;;;3.97;;
43435;SDS011;36399;51.444;-2.018;2023-04-15T08:59:00;8.53;;;3.30;;
43435;SDS011;36399;51.444;-2.018;2023-04-15T09:01:26;6.97;;;3.07;;
43435;SDS011;36399;51.444;-2.018;2023-04-15T09:03:53;6.90;;;3.23;;
43435;SDS011;36399;51.444;-2.018;2023-04-15T09:06:19;6.57;;;2.70;;
43435;SDS011;36399;51.444;-2.018;2023-04-15T09:08:46;5.90;;;3.40;;
43435;SDS011;36399;51.444;-2.018;2023-04-15T09:11:12;8.47;;;3.83;;
43435;SDS011;36399;51.444;-2.018;2023-04-15T09:13:38;6.00;;;2.63;;
43435;SDS011;36399;51.444;-2.018;2023-04-15T09:16:05;6.50;;;3.10;;
43435;SDS011;36399;51.444;-2.018;2023-04-15T09:18:32;6.67;;;3.40;;
43435;SDS011;36399;51.444;-2.018;2023-04-15T09:21:05;5.43;;;3.23;;
43435;SDS011;36399;51.444;-2.018;2023-04-15T09:23:34;4.67;;;3.23;;
43435;SDS011;36399;51.444;-2.018;2023-04-15T09:26:00;4.93;;;2.47;;
43435;SDS011;36399;51.444;-2.018;2023-04-15T09:28:28;6.13;;;3.27;;
43435;SDS011;36399;51.444;-2.018;2023-04-15T09:30:54;5.23;;;2.60;;
43435;SDS011;36399;51.444;-2.018;2023-04-15T09:33:22;5.50;;;2.43;;
43435;SDS011;36399;51.444;-2.018;2023-04-15T09:35:58;3.47;;;1.63;;
43435;SDS011;36399;51.444;-2.018;2023-04-15T09:38:26;5.97;;;2.70;;
43435;SDS011;36399;51.444;-2.018;2023-04-15T09:40:53;3.93;;;1.60;;
43435;SDS011;36399;51.444;-2.018;2023-04-15T09:43:19;4.27;;;2.40;;
43435;SDS011;36399;51.444;-2.018;2023-04-15T09:45:46;4.37;;;2.40;;
43435;SDS011;36399;51.444;-2.018;2023-04-15T09:48:18;4.70;;;2.27;;
43435;SDS011;36399;51.444;-2.018;2023-04-15T09:50:55;7.87;;;2.53;;
43435;SDS011;36399;51.444;-2.018;2023-04-15T09:53:23;4.23;;;2.10;;
43435;SDS011;36399;51.444;-2.018;2023-04-15T09:55:50;4.47;;;1.90;;
43435;SDS011;36399;51.444;-2.018;2023-04-15T09:58:24;4.40;;;2.37;;
43435;SDS011;36399;51.444;-2.018;2023-04-15T10:00:53;4.50;;;2.00;;
43435;SDS011;36399;51.444;-2.018;2023-04-15T10:03:24;5.33;;;2.20;;
43435;SDS011;36399;51.444;-2.018;2023-04-15T10:05:53;4.50;;;2.20;;
43435;SDS011;36399;51.444;-2.018;2023-04-15T10:08:22;4.00;;;2.00;;
43435;SDS011;36399;51.444;-2.018;2023-04-15T10:10:50;4.83;;;1.97;;
43435;SDS011;36399;51.444;-2.018;2023-04-15T10:13:17;4.53;;;2.60;;
43435;SDS011;36399;51.444;-2.018;2023-04-15T10:15:49;4.83;;;1.80;;
43435;SDS011;36399;51.444;-2.018;2023-04-15T10:18:16;4.83;;;1.90;;
43435;SDS011;36399;51.444;-2.018;2023-04-15T10:20:45;3.07;;;1.50;;
43435;SDS011;36399;51.444;-2.018;2023-04-15T10:23:13;3.87;;;1.83;;
43435;SDS011;36399;51.444;-2.018;2023-04-15T10:25:40;4.73;;;1.90;;
43435;SDS011;36399;51.444;-2.018;2023-04-15T10:28:07;4.87;;;2.23;;
43435;SDS011;36399;51.444;-2.018;2023-04-15T10:30:35;3.47;;;1.60;;
43435;SDS011;36399;51.444;-2.018;2023-04-15T10:33:02;3.20;;;1.73;;
43435;SDS011;36399;51.444;-2.018;2023-04-15T10:35:30;3.57;;;1.87;;
43435;SDS011;36399;51.444;-2.018;2023-04-15T10:37:57;3.43;;;1.53;;
43435;SDS011;36399;51.444;-2.018;2023-04-15T10:40:27;3.77;;;1.80;;
43435;SDS011;36399;51.444;-2.018;2023-04-15T10:42:59;5.03;;;1.52;;
43435;SDS011;36399;51.444;-2.018;2023-04-15T10:45:27;2.63;;;1.70;;
43435;SDS011;36399;51.444;-2.018;2023-04-15T10:47:57;3.30;;;1.73;;
43435;SDS011;36399;51.444;-2.018;2023-04-15T10:50:25;3.63;;;1.70;;
43435;SDS011;36399;51.444;-2.018;2023-04-15T10:52:52;4.27;;;1.70;;
43435;SDS011;36399;51.444;-2.018;2023-04-15T10:55:19;3.67;;;1.80;;
43435;SDS011;36399;51.444;-2.018;2023-04-15T10:57:50;1.77;;;1.20;;
43435;SDS011;36399;51.444;-2.018;2023-04-15T11:00:18;4.67;;;1.90;;
43435;SDS011;36399;51.444;-2.018;2023-04-15T11:02:47;3.50;;;1.77;;
43435;SDS011;36399;51.444;-2.018;2023-04-15T11:05:16;2.40;;;1.50;;
43435;SDS011;36399;51.444;-2.018;2023-04-15T11:07:54;4.17;;;1.90;;
43435;SDS011;36399;51.444;-2.018;2023-04-15T11:12:55;4.07;;;2.07;;
43435;SDS011;36399;51.444;-2.018;2023-04-15T11:18:09;4.17;;;2.47;;
43435;SDS011;36399;51.444;-2.018;2023-04-15T11:20:36;3.83;;;1.90;;
43435;SDS011;36399;51.444;-2.018;2023-04-15T11:23:03;4.73;;;2.30;;
43435;SDS011;36399;51.444;-2.018;2023-04-15T11:25:30;3.50;;;1.47;;
43435;SDS011;36399;51.444;-2.018;2023-04-15T11:27:58;5.00;;;2.30;;
43435;SDS011;36399;51.444;-2.018;2023-04-15T11:30:26;3.33;;;1.80;;
43435;SDS011;36399;51.444;-2.018;2023-04-15T11:32:56;4.80;;;2.13;;
43435;SDS011;36399;51.444;-2.018;2023-04-15T11:35:24;2.93;;;1.63;;
43435;SDS011;36399;51.444;-2.018;2023-04-15T11:37:50;2.90;;;1.40;;
43435;SDS011;36399;51.444;-2.018;2023-04-15T11:40:16;2.78;;;1.42;;
43435;SDS011;36399;51.444;-2.018;2023-04-15T11:43:24;4.68;;;1.55;;
43435;SDS011;36399;51.444;-2.018;2023-04-15T11:48:16;2.77;;;1.50;;
43435;SDS011;36399;51.444;-2.018;2023-04-15T11:50:42;3.93;;;1.80;;
43435;SDS011;36399;51.444;-2.018;2023-04-15T11:53:10;2.77;;;1.20;;
43435;SDS011;36399;51.444;-2.018;2023-04-15T11:55:46;2.73;;;1.40;;
43435;SDS011;36399;51.444;-2.018;2023-04-15T11:58:14;4.10;;;1.67;;
43435;SDS011;36399;51.444;-2.018;2023-04-15T12:00:45;2.60;;;1.33;;
43435;SDS011;36399;51.444;-2.018;2023-04-15T12:03:29;2.50;;;1.40;;
43435;SDS011;36399;51.444;-2.018;2023-04-15T12:11:20;2.17;;;1.33;;
43435;SDS011;36399;51.444;-2.018;2023-04-15T12:13:55;2.55;;;1.40;;
43435;SDS011;36399;51.444;-2.018;2023-04-15T12:16:23;3.90;;;2.03;;
43435;SDS011;36399;51.444;-2.018;2023-04-15T12:18:53;2.03;;;1.47;;
43435;SDS011;36399;51.444;-2.018;2023-04-15T12:21:24;2.70;;;1.40;;
43435;SDS011;36399;51.444;-2.018;2023-04-15T12:23:52;3.00;;;1.40;;
43435;SDS011;36399;51.444;-2.018;2023-04-15T12:26:29;3.05;;;1.20;;
43435;SDS011;36399;51.444;-2.018;2023-04-15T12:29:01;2.63;;;1.20;;
43435;SDS011;36399;51.444;-2.018;2023-04-15T12:31:35;3.25;;;1.00;;
43435;SDS011;36399;51.444;-2.018;2023-04-15T12:34:02;3.15;;;1.45;;
43435;SDS011;36399;51.444;-2.018;2023-04-15T12:36:32;2.25;;;1.27;;
43435;SDS011;36399;51.444;-2.018;2023-04-15T12:39:04;1.95;;;0.93;;
43435;SDS011;36399;51.444;-2.018;2023-04-15T12:41:31;1.58;;;0.85;;
43435;SDS011;36399;51.444;-2.018;2023-04-15T12:43:57;2.08;;;1.10;;
43435;SDS011;36399;51.444;-2.018;2023-04-15T12:46:26;2.47;;;1.20;;
43435;SDS011;36399;51.444;-2.018;2023-04-15T12:48:52;2.78;;;1.08;;
43435;SDS011;36399;51.444;-2.018;2023-04-15T12:51:18;3.10;;;1.90;;
43435;SDS011;36399;51.444;-2.018;2023-04-15T12:53:48;2.42;;;1.15;;
43435;SDS011;36399;51.444;-2.018;2023-04-15T12:56:14;2.15;;;1.17;;
43435;SDS011;36399;51.444;-2.018;2023-04-15T12:58:41;1.83;;;1.20;;
43435;SDS011;36399;51.444;-2.018;2023-04-15T13:01:08;2.13;;;1.15;;
43435;SDS011;36399;51.444;-2.018;2023-04-15T13:03:35;2.58;;;1.25;;
43435;SDS011;36399;51.444;-2.018;2023-04-15T13:06:01;3.15;;;1.15;;
43435;SDS011;36399;51.444;-2.018;2023-04-15T13:08:29;3.08;;;1.17;;
43435;SDS011;36399;51.444;-2.018;2023-04-15T13:10:55;2.78;;;1.20;;
43435;SDS011;36399;51.444;-2.018;2023-04-15T13:13:21;1.75;;;1.00;;
43435;SDS011;36399;51.444;-2.018;2023-04-15T13:15:47;2.47;;;1.20;;
43435;SDS011;36399;51.444;-2.018;2023-04-15T13:18:13;3.70;;;1.15;;
43435;SDS011;36399;51.444;-2.018;2023-04-15T13:20:40;1.77;;;0.98;;
43435;SDS011;36399;51.444;-2.018;2023-04-15T13:23:06;2.80;;;1.20;;
43435;SDS011;36399;51.444;-2.018;2023-04-15T13:25:32;2.57;;;1.00;;
43435;SDS011;36399;51.444;-2.018;2023-04-15T13:27:58;4.03;;;1.50;;
43435;SDS011;36399;51.444;-2.018;2023-04-15T13:30:26;2.97;;;1.10;;
43435;SDS011;36399;51.444;-2.018;2023-04-15T13:32:52;1.53;;;0.90;;
43435;SDS011;36399;51.444;-2.018;2023-04-15T13:35:19;2.57;;;1.50;;
43435;SDS011;36399;51.444;-2.018;2023-04-15T13:37:45;3.77;;;1.37;;
43435;SDS011;36399;51.444;-2.018;2023-04-15T13:40:12;2.22;;;1.00;;
43435;SDS011;36399;51.444;-2.018;2023-04-15T13:42:38;2.97;;;1.20;;
43435;SDS011;36399;51.444;-2.018;2023-04-15T13:45:07;2.75;;;1.17;;
43435;SDS011;36399;51.444;-2.018;2023-04-15T13:47:33;2.45;;;1.33;;
43435;SDS011;36399;51.444;-2.018;2023-04-15T13:49:59;2.42;;;1.33;;
43435;SDS011;36399;51.444;-2.018;2023-04-15T13:52:25;2.45;;;1.25;;
43435;SDS011;36399;51.444;-2.018;2023-04-15T13:54:51;1.98;;;0.98;;
43435;SDS011;36399;51.444;-2.018;2023-04-15T13:57:17;2.00;;;0.90;;
43435;SDS011;36399;51.444;-2.018;2023-04-15T13:59:43;1.58;;;0.90;;
43435;SDS011;36399;51.444;-2.018;2023-04-15T14:02:09;3.80;;;1.90;;
43435;SDS011;36399;51.444;-2.018;2023-04-15T14:04:35;1.92;;;0.98;;
43435;SDS011;36399;51.444;-2.018;2023-04-15T14:07:02;1.83;;;0.82;;
43435;SDS011;36399;51.444;-2.018;2023-04-15T14:09:28;3.17;;;1.20;;
43435;SDS011;36399;51.444;-2.018;2023-04-15T14:11:54;1.83;;;1.00;;
43435;SDS011;36399;51.444;-2.018;2023-04-15T14:14:20;2.27;;;0.97;;
43435;SDS011;36399;51.444;-2.018;2023-04-15T14:16:46;2.83;;;1.27;;
43435;SDS011;36399;51.444;-2.018;2023-04-15T14:19:13;2.95;;;1.08;;
43435;SDS011;36399;51.444;-2.018;2023-04-15T14:21:39;1.88;;;0.95;;
43435;SDS011;36399;51.444;-2.018;2023-04-15T14:24:05;1.92;;;1.00;;
43435;SDS011;36399;51.444;-2.018;2023-04-15T14:26:31;2.50;;;1.25;;
43435;SDS011;36399;51.444;-2.018;2023-04-15T14:28:57;1.88;;;1.00;;
43435;SDS011;36399;51.444;-2.018;2023-04-15T14:31:23;1.77;;;0.73;;
43435;SDS011;36399;51.444;-2.018;2023-04-15T14:33:49;1.98;;;1.10;;
43435;SDS011;36399;51.444;-2.018;2023-04-15T14:36:15;1.48;;;0.82;;
43435;SDS011;36399;51.444;-2.018;2023-04-15T14:38:41;2.53;;;1.15;;
43435;SDS011;36399;51.444;-2.018;2023-04-15T14:41:07;2.03;;;0.88;;
43435;SDS011;36399;51.444;-2.018;2023-04-15T14:43:34;2.08;;;1.10;;
43435;SDS011;36399;51.444;-2.018;2023-04-15T14:46:01;1.90;;;1.10;;